createdAt,value
2018-05-12T00:00:07.692Z,96.17
2018-05-12T00:01:07.654Z,95.70
2018-05-12T00:02:07.656Z,96.27
2018-05-12T00:03:07.653Z,96.27
2018-05-12T00:04:07.645Z,95.84
2018-05-12T00:05:08.652Z,95.70
2018-05-12T00:06:07.630Z,94.89
2018-05-12T00:07:07.626Z,95.32
2018-05-12T00:08:07.636Z,94.98
2018-05-12T00:09:07.612Z,94.22
2018-05-12T00:10:07.648Z,94.22
2018-05-12T00:11:07.605Z,93.36
2018-05-12T00:12:07.607Z,93.65
2018-05-12T00:13:07.584Z,94.89
2018-05-12T00:14:07.598Z,96.03
2018-05-12T00:15:07.583Z,95.65
2018-05-12T00:16:07.590Z,96.22
2018-05-12T00:17:07.578Z,95.84
2018-05-12T00:18:07.577Z,95.27
2018-05-12T00:19:07.590Z,95.94
2018-05-12T00:20:07.612Z,96.22
2018-05-12T00:21:07.556Z,95.84
2018-05-12T00:22:07.548Z,95.17
2018-05-12T00:23:07.566Z,96.51
2018-05-12T00:24:07.535Z,95.84
2018-05-12T00:25:07.535Z,94.79
2018-05-12T00:26:07.528Z,94.32
2018-05-12T00:27:07.535Z,94.79
2018-05-12T00:28:07.528Z,94.22
2018-05-12T00:29:07.515Z,92.79
2018-05-12T00:30:07.504Z,93.93
2018-05-12T00:31:07.507Z,94.60
2018-05-12T00:32:07.503Z,95.84
2018-05-12T00:33:07.487Z,95.37
2018-05-12T00:34:07.491Z,94.98
2018-05-12T00:35:07.487Z,95.27
2018-05-12T00:36:07.482Z,94.65
2018-05-12T00:37:07.487Z,95.94
2018-05-12T00:38:07.471Z,94.70
2018-05-12T00:39:07.467Z,93.74
2018-05-12T00:40:07.453Z,93.65
2018-05-12T00:41:07.465Z,94.32
2018-05-12T00:42:07.459Z,94.70
2018-05-12T00:43:07.449Z,93.74
2018-05-12T00:44:07.449Z,92.50
2018-05-12T00:45:07.438Z,91.17
2018-05-12T00:46:07.444Z,89.93
2018-05-12T00:47:07.436Z,88.84
2018-05-12T00:48:07.455Z,87.74
2018-05-12T00:49:07.422Z,88.02
2018-05-12T00:50:07.411Z,86.16
2018-05-12T00:51:07.407Z,86.07
2018-05-12T00:52:07.454Z,86.36
2018-05-12T00:53:07.409Z,86.16
2018-05-12T00:54:07.414Z,85.41
2018-05-12T00:55:07.386Z,83.88
2018-05-12T00:56:07.428Z,83.88
2018-05-12T00:57:07.385Z,84.01
2018-05-12T00:58:07.371Z,85.35
2018-05-12T00:59:07.372Z,86.11
2018-05-12T01:00:07.362Z,86.11
2018-05-12T01:01:07.364Z,86.59
2018-05-12T01:02:07.360Z,86.59
2018-05-12T01:03:07.358Z,85.12
2018-05-12T01:04:07.344Z,84.92
2018-05-12T01:05:07.337Z,84.07
2018-05-12T01:06:07.326Z,83.12
2018-05-12T01:07:07.324Z,84.20
2018-05-12T01:08:07.323Z,83.78
2018-05-12T01:09:07.334Z,83.21
2018-05-12T01:10:07.329Z,83.73
2018-05-12T01:11:07.307Z,83.97
2018-05-12T01:12:07.293Z,83.78
2018-05-12T01:13:07.294Z,83.54
2018-05-12T01:14:07.296Z,84.01
2018-05-12T01:15:07.293Z,84.07
2018-05-12T01:16:07.287Z,83.12
2018-05-12T01:17:07.319Z,83.59
2018-05-12T01:18:07.270Z,83.69
2018-05-12T01:19:07.265Z,84.45
2018-05-12T01:20:07.265Z,82.83
2018-05-12T01:21:07.254Z,83.50
2018-05-12T01:22:07.255Z,83.21
2018-05-12T01:23:07.254Z,81.68
2018-05-12T01:24:07.231Z,82.35
2018-05-12T01:25:07.228Z,81.49
2018-05-12T01:26:07.232Z,80.16
2018-05-12T01:27:07.242Z,79.40
2018-05-12T01:28:07.217Z,77.97
2018-05-12T01:29:07.219Z,77.30
2018-05-12T01:30:07.206Z,78.06
2018-05-12T02:03:52.537Z,68.02
2018-05-12T02:04:52.499Z,68.02
2018-05-12T02:07:36.371Z,68.02
2018-05-12T02:08:36.335Z,68.05
2018-05-12T02:10:29.249Z,67.58
2018-05-12T02:11:29.221Z,67.93
2018-05-12T02:13:22.127Z,68.82
2018-05-12T02:14:22.113Z,68.30
2018-05-12T02:16:15.024Z,69.01
2018-05-12T02:17:14.977Z,68.78
2018-05-12T02:18:14.985Z,68.50
2018-05-12T02:19:14.979Z,68.40
2018-05-12T02:20:14.960Z,68.78
2018-05-12T02:21:14.965Z,68.69
2018-05-12T02:22:14.958Z,68.40
2018-05-12T02:23:14.945Z,68.50
2018-05-12T02:24:14.944Z,68.69
2018-05-12T02:25:14.935Z,68.69
2018-05-12T02:26:14.931Z,69.26
2018-05-12T02:27:14.924Z,68.78
2018-05-12T02:28:14.909Z,68.40
2018-05-12T02:29:14.920Z,68.50
2018-05-12T02:30:15.570Z,68.78
2018-05-12T02:31:14.917Z,68.78
2018-05-12T02:32:14.897Z,69.45
2018-05-12T02:33:14.894Z,70.12
2018-05-12T02:34:14.901Z,69.64
2018-05-12T02:35:14.876Z,69.54
2018-05-12T02:36:14.880Z,69.74
2018-05-12T02:37:14.872Z,69.45
2018-05-12T02:38:14.866Z,68.88
2018-05-12T02:39:14.856Z,68.50
2018-05-12T02:40:14.869Z,67.93
2018-05-12T02:41:14.849Z,67.64
2018-05-12T02:42:14.835Z,68.02
2018-05-12T02:43:14.833Z,67.64
2018-05-12T02:44:14.825Z,66.02
2018-05-12T02:45:14.837Z,64.50
2018-05-12T02:46:14.815Z,64.78
2018-05-12T02:47:14.815Z,64.02
2018-05-12T02:48:14.807Z,64.40
2018-05-12T02:49:14.799Z,64.50
2018-05-12T02:50:14.794Z,65.07
2018-05-12T02:51:14.791Z,65.83
2018-05-12T02:52:14.786Z,65.55
2018-05-12T02:53:14.782Z,66.40
2018-05-12T02:54:14.774Z,65.99
2018-05-12T02:55:14.767Z,64.78
2018-05-12T02:56:14.768Z,63.83
2018-05-12T02:57:14.757Z,63.07
2018-05-12T02:58:14.749Z,63.83
2018-05-12T02:59:14.747Z,64.59
2018-05-12T03:00:14.753Z,64.31
2018-05-12T03:01:14.734Z,64.31
2018-05-12T03:02:14.731Z,64.50
2018-05-12T03:03:14.724Z,67.16
2018-05-12T03:04:14.720Z,68.12
2018-05-12T03:05:14.711Z,68.88
2018-05-12T03:06:14.702Z,68.18
2018-05-12T03:07:14.708Z,66.11
2018-05-12T03:08:14.696Z,64.31
2018-05-12T03:09:14.688Z,63.07
2018-05-12T03:10:14.705Z,63.17
2018-05-12T03:11:14.687Z,63.64
2018-05-12T03:12:14.679Z,63.35
2018-05-12T03:13:14.669Z,63.32
2018-05-12T03:14:14.663Z,62.88
2018-05-12T03:15:14.680Z,62.02
2018-05-12T03:16:14.660Z,61.83
2018-05-12T03:17:14.651Z,61.35
2018-05-12T03:18:14.644Z,61.73
2018-05-12T03:19:14.638Z,62.68
2018-05-12T03:20:14.632Z,63.26
2018-05-12T03:21:14.628Z,63.35
2018-05-12T03:22:14.620Z,63.83
2018-05-12T03:23:14.611Z,63.73
2018-05-12T03:24:14.610Z,64.02
2018-05-12T03:25:14.605Z,64.21
2018-05-12T03:26:14.606Z,64.59
2018-05-12T03:27:14.597Z,65.16
2018-05-12T03:28:14.585Z,65.73
2018-05-12T03:29:14.582Z,65.36
2018-05-12T03:30:14.587Z,63.17
2018-05-12T03:31:14.570Z,62.88
2018-05-12T03:32:14.578Z,63.64
2018-05-12T03:33:14.565Z,63.83
2018-05-12T03:34:14.553Z,63.64
2018-05-12T03:35:14.564Z,64.87
2018-05-12T03:36:14.543Z,65.16
2018-05-12T03:37:14.553Z,64.94
2018-05-12T03:38:14.526Z,64.87
2018-05-12T03:39:14.534Z,64.69
2018-05-12T03:40:14.520Z,64.94
2018-05-12T03:41:14.529Z,64.59
2018-05-12T03:42:14.529Z,64.21
2018-05-12T03:43:14.507Z,63.04
2018-05-12T03:44:14.503Z,63.17
2018-05-12T03:45:14.500Z,62.85
2018-05-12T03:46:14.497Z,62.88
2018-05-12T03:47:14.487Z,63.07
2018-05-12T03:48:14.476Z,63.07
2018-05-12T03:49:14.477Z,63.26
2018-05-12T03:50:14.465Z,62.78
2018-05-12T03:51:14.460Z,62.65
2018-05-12T03:52:14.473Z,62.08
2018-05-12T03:53:14.451Z,61.22
2018-05-12T03:54:14.442Z,61.45
2018-05-12T03:55:14.440Z,61.42
2018-05-12T03:56:14.440Z,61.61
2018-05-12T03:57:14.442Z,61.70
2018-05-12T03:58:14.428Z,61.32
2018-05-12T03:59:14.424Z,61.22
2018-05-12T04:00:14.417Z,61.64
2018-05-12T04:01:14.405Z,61.45
2018-05-12T04:02:14.398Z,61.73
2018-05-12T04:03:14.398Z,62.30
2018-05-12T04:04:14.406Z,62.59
2018-05-12T04:05:14.388Z,63.26
2018-05-12T04:06:14.389Z,63.73
2018-05-12T04:07:14.390Z,64.21
2018-05-12T04:08:14.367Z,65.07
2018-05-12T04:09:14.362Z,65.83
2018-05-12T04:10:14.356Z,66.59
2018-05-12T04:11:14.353Z,67.74
2018-05-12T04:12:14.349Z,68.40
2018-05-12T04:13:14.337Z,69.45
2018-05-12T04:14:14.331Z,70.12
2018-05-12T04:15:14.338Z,71.17
2018-05-12T04:16:14.334Z,71.45
2018-05-12T04:17:14.321Z,71.73
2018-05-12T04:18:14.313Z,72.02
2018-05-12T04:19:14.309Z,71.55
2018-05-12T04:20:14.301Z,70.50
2018-05-12T04:21:14.287Z,71.45
2018-05-12T04:22:14.293Z,72.02
2018-05-12T04:23:14.287Z,73.74
2018-05-12T04:24:14.286Z,74.50
2018-05-12T04:25:14.274Z,74.12
2018-05-12T04:26:14.269Z,74.69
2018-05-12T04:27:14.279Z,74.69
2018-05-12T04:28:14.261Z,74.44
2018-05-12T04:29:14.256Z,75.40
2018-05-12T04:30:14.251Z,76.35
2018-05-12T04:31:14.263Z,77.40
2018-05-12T04:32:14.243Z,77.49
2018-05-12T04:33:14.232Z,78.16
2018-05-12T04:34:14.233Z,79.11
2018-05-12T04:35:14.237Z,78.83
2018-05-12T04:36:14.223Z,79.40
2018-05-12T04:37:14.220Z,79.30
2018-05-12T04:38:14.213Z,80.07
2018-05-12T04:39:14.209Z,80.16
2018-05-12T04:40:14.201Z,79.40
2018-05-12T04:41:14.202Z,80.26
2018-05-12T04:42:14.191Z,80.54
2018-05-12T04:43:14.251Z,81.49
2018-05-12T04:44:14.184Z,81.68
2018-05-12T04:45:14.284Z,82.35
2018-05-12T04:46:14.174Z,83.83
2018-05-12T04:47:14.173Z,84.78
2018-05-12T04:48:14.174Z,85.16
2018-05-12T04:49:14.158Z,86.02
2018-05-12T04:50:14.155Z,86.30
2018-05-12T04:51:14.148Z,87.16
2018-05-12T04:52:14.150Z,88.02
2018-05-12T04:53:14.131Z,88.69
2018-05-12T04:54:14.153Z,89.64
2018-05-12T04:55:14.141Z,89.64
2018-05-12T04:56:14.139Z,90.03
2018-05-12T04:57:14.120Z,90.31
2018-05-12T04:58:14.118Z,91.36
2018-05-12T04:59:14.109Z,91.17
2018-05-12T05:00:14.118Z,91.46
2018-05-12T05:01:14.105Z,91.07
2018-05-12T05:02:14.104Z,93.08
2018-05-12T05:03:14.097Z,92.74
2018-05-12T05:04:14.090Z,93.51
2018-05-12T05:05:14.080Z,92.69
2018-05-12T05:06:14.088Z,93.27
2018-05-12T05:07:14.078Z,93.70
2018-05-12T05:08:14.092Z,94.07
2018-05-12T05:09:14.070Z,95.03
2018-05-12T05:10:14.067Z,95.12
2018-05-12T05:11:14.076Z,95.89
2018-05-12T05:12:14.052Z,95.89
2018-05-12T05:13:14.058Z,96.84
2018-05-12T05:14:14.052Z,97.42
2018-05-12T05:15:14.085Z,97.66
2018-05-12T05:16:14.040Z,98.23
2018-05-12T05:17:14.045Z,98.61
2018-05-12T05:18:14.043Z,99.85
2018-05-12T05:19:14.028Z,99.99
2018-05-12T05:20:14.025Z,99.99
2018-05-12T05:21:14.093Z,99.99
2018-05-12T05:22:14.015Z,99.99
2018-05-12T05:23:14.016Z,99.99
2018-05-12T05:24:14.013Z,99.99
2018-05-12T05:25:14.013Z,99.99
2018-05-12T05:26:14.026Z,99.99
2018-05-12T05:27:14.000Z,99.99
2018-05-12T05:28:14.004Z,99.99
2018-05-12T05:29:13.991Z,99.99
2018-05-12T05:30:14.007Z,99.99
2018-05-12T05:31:13.981Z,99.99
2018-05-12T05:32:13.979Z,99.99
2018-05-12T05:33:13.989Z,99.99
2018-05-12T05:34:14.004Z,99.99
2018-05-12T05:35:14.005Z,99.99
2018-05-12T05:36:13.967Z,99.99
2018-05-12T05:37:13.963Z,99.99
2018-05-12T05:38:13.958Z,99.99
2018-05-12T05:39:13.954Z,99.99
2018-05-12T05:40:13.952Z,99.99
2018-05-12T05:41:13.951Z,99.99
2018-05-12T05:42:13.948Z,99.99
2018-05-12T05:43:13.942Z,99.99
2018-05-12T05:44:13.942Z,99.99
2018-05-12T05:45:13.959Z,99.99
2018-05-12T05:46:13.938Z,99.99
2018-05-12T05:47:13.933Z,99.99
2018-05-12T05:48:13.928Z,99.99
2018-05-12T05:49:13.920Z,99.99
2018-05-12T05:50:13.938Z,99.99
2018-05-12T05:51:13.932Z,99.99
2018-05-12T05:52:13.922Z,99.99
2018-05-12T05:53:13.918Z,99.99
2018-05-12T05:54:13.912Z,99.99
2018-05-12T05:55:13.912Z,99.99
2018-05-12T05:56:14.581Z,99.99
2018-05-12T05:57:13.916Z,99.99
2018-05-12T05:58:13.904Z,99.99
2018-05-12T05:59:13.897Z,99.99
2018-05-12T06:00:13.950Z,99.99
2018-05-12T06:01:13.895Z,99.99
2018-05-12T06:02:13.969Z,99.99
2018-05-12T06:03:13.896Z,99.99
2018-05-12T06:04:13.887Z,99.99
2018-05-12T06:05:13.897Z,99.99
2018-05-12T06:06:13.886Z,99.99
2018-05-12T06:07:13.987Z,99.99
2018-05-12T06:08:13.879Z,99.99
2018-05-12T06:09:13.867Z,99.99
2018-05-12T06:10:13.875Z,99.99
2018-05-12T06:11:13.877Z,99.99
2018-05-12T06:12:13.904Z,99.99
2018-05-12T06:13:13.883Z,99.99
2018-05-12T06:14:13.944Z,99.99
2018-05-12T06:15:13.883Z,99.99
2018-05-12T06:16:13.860Z,99.99
2018-05-12T06:17:13.900Z,99.99
2018-05-12T06:18:13.906Z,99.99
2018-05-12T06:19:13.858Z,99.99
2018-05-12T06:20:13.855Z,99.99
2018-05-12T06:21:13.855Z,99.99
2018-05-12T06:22:13.898Z,99.99
2018-05-12T06:23:13.894Z,99.99
2018-05-12T06:24:13.911Z,99.99
2018-05-12T06:25:13.912Z,99.99
2018-05-12T06:26:13.859Z,99.99
2018-05-12T06:27:13.876Z,99.99
2018-05-12T06:28:13.944Z,99.99
2018-05-12T06:29:13.943Z,99.99
2018-05-12T06:30:13.839Z,99.99
2018-05-12T06:31:13.845Z,99.99
2018-05-12T06:32:13.858Z,99.99
2018-05-12T06:33:13.874Z,99.99
2018-05-12T06:34:13.866Z,99.99
2018-05-12T06:35:13.872Z,99.99
2018-05-12T06:36:13.870Z,99.99
2018-05-12T06:37:13.897Z,99.99
2018-05-12T06:38:13.899Z,99.99
2018-05-12T06:39:13.845Z,99.99
2018-05-12T06:40:13.837Z,99.99
2018-05-12T06:41:13.873Z,99.99
2018-05-12T06:42:13.863Z,99.99
2018-05-12T06:43:13.848Z,99.99
2018-05-12T06:44:13.843Z,99.99
2018-05-12T06:45:13.858Z,99.99
2018-05-12T06:46:13.843Z,99.99
2018-05-12T06:47:13.837Z,99.99
2018-05-12T06:48:13.814Z,96.27
2018-05-12T06:49:13.849Z,96.66
2018-05-12T06:50:13.814Z,97.56
2018-05-12T06:51:13.818Z,95.36
2018-05-12T06:52:13.807Z,96.13
2018-05-12T06:53:13.810Z,98.24
2018-05-12T06:54:13.867Z,98.62
2018-05-12T06:55:13.902Z,98.53
2018-05-12T06:56:13.822Z,99.99
2018-05-12T06:57:14.642Z,99.99
2018-05-12T06:58:13.823Z,98.96
2018-05-12T06:59:13.837Z,94.93
2018-05-12T07:00:13.846Z,93.20
2018-05-12T07:01:14.769Z,94.31
2018-05-12T07:02:13.823Z,91.85
2018-05-12T07:03:13.883Z,91.33
2018-05-12T07:04:13.874Z,94.64
2018-05-12T07:05:13.833Z,88.06
2018-05-12T07:06:13.842Z,86.61
2018-05-12T07:07:13.829Z,88.29
2018-05-12T07:08:13.840Z,87.96
2018-05-12T07:09:13.839Z,86.36
2018-05-12T07:10:13.810Z,81.93
2018-05-12T07:11:13.819Z,79.96
2018-05-12T07:12:13.852Z,80.60
2018-05-12T07:13:13.824Z,81.37
2018-05-12T07:14:13.845Z,81.65
2018-05-12T07:15:13.829Z,80.25
2018-05-12T07:16:13.860Z,79.33
2018-05-12T07:17:13.866Z,77.69
2018-05-12T07:18:13.865Z,77.98
2018-05-12T07:19:13.851Z,78.17
2018-05-12T07:20:13.879Z,75.90
2018-05-12T07:21:13.892Z,75.90
2018-05-12T07:22:13.895Z,75.26
2018-05-12T07:23:13.900Z,73.31
2018-05-12T07:24:13.904Z,70.68
2018-05-12T07:25:13.921Z,68.84
2018-05-12T07:26:13.882Z,68.10
2018-05-12T07:27:13.915Z,68.27
2018-05-12T07:28:13.925Z,67.75
2018-05-12T07:29:13.946Z,66.01
2018-05-12T07:30:13.945Z,65.20
2018-05-12T07:31:13.958Z,66.17
2018-05-12T07:32:13.958Z,64.62
2018-05-12T07:33:13.975Z,65.08
2018-05-12T07:34:13.968Z,64.72
2018-05-12T07:35:14.001Z,65.92
2018-05-12T07:36:14.053Z,67.88
2018-05-12T07:37:14.013Z,69.62
2018-05-12T07:38:14.030Z,66.50
2018-05-12T07:39:14.030Z,64.53
2018-05-12T07:40:14.117Z,64.24
2018-05-12T07:41:14.123Z,65.40
2018-05-12T07:42:14.139Z,64.72
2018-05-12T07:43:14.137Z,64.82
2018-05-12T07:44:14.111Z,64.59
2018-05-12T07:45:14.655Z,65.53
2018-05-12T07:46:14.174Z,65.27
2018-05-12T07:47:14.148Z,64.11
2018-05-12T07:48:14.163Z,64.53
2018-05-12T07:49:14.168Z,62.04
2018-05-12T07:50:14.181Z,62.69
2018-05-12T07:51:14.179Z,64.47
2018-05-12T07:52:14.189Z,65.40
2018-05-12T07:53:14.197Z,66.63
2018-05-12T07:54:14.206Z,66.75
2018-05-12T07:55:14.231Z,65.40
2018-05-12T07:56:14.285Z,62.40
2018-05-12T07:57:14.246Z,61.55
2018-05-12T07:58:14.268Z,61.59
2018-05-12T07:59:14.329Z,63.37
2018-05-12T08:00:14.341Z,65.30
2018-05-12T08:01:14.327Z,65.50
2018-05-12T08:02:14.377Z,65.88
2018-05-12T08:03:14.357Z,65.30
2018-05-12T08:04:14.359Z,63.21
2018-05-12T08:05:14.381Z,63.53
2018-05-12T08:06:14.381Z,62.49
2018-05-12T08:07:14.398Z,60.00
2018-05-12T08:08:14.417Z,60.27
2018-05-12T08:09:14.433Z,60.24
2018-05-12T08:10:14.509Z,61.63
2018-05-12T08:11:14.452Z,61.30
2018-05-12T08:12:15.133Z,62.24
2018-05-12T08:13:14.488Z,62.50
2018-05-12T08:14:14.547Z,63.04
2018-05-12T08:15:14.542Z,62.17
2018-05-12T08:16:14.526Z,60.94
2018-05-12T08:17:14.583Z,59.00
2018-05-12T08:18:14.573Z,56.16
2018-05-12T08:19:14.585Z,54.71
2018-05-12T08:20:14.615Z,53.42
2018-05-12T08:21:14.683Z,52.57
2018-05-12T08:22:14.625Z,51.65
2018-05-12T08:23:14.692Z,49.83
2018-05-12T08:24:14.700Z,48.93
2018-05-12T08:25:14.692Z,47.07
2018-05-12T08:26:14.713Z,49.12
2018-05-12T08:27:14.737Z,50.56
2018-05-12T08:28:14.722Z,52.25
2018-05-12T08:29:14.731Z,50.82
2018-05-12T08:30:14.763Z,50.34
2018-05-12T08:31:15.557Z,50.89
2018-05-12T08:32:14.812Z,54.21
2018-05-12T08:33:14.870Z,52.23
2018-05-12T08:34:14.863Z,52.03
2018-05-12T08:35:14.878Z,54.72
2018-05-12T08:36:14.919Z,54.75
2018-05-12T08:37:14.873Z,54.10
2018-05-12T08:38:14.899Z,53.64
2018-05-12T08:39:14.914Z,54.92
2018-05-12T08:40:14.929Z,55.02
2018-05-12T08:41:15.012Z,54.74
2018-05-12T08:42:15.640Z,56.23
2018-05-12T08:43:15.024Z,53.69
2018-05-12T08:44:15.046Z,53.06
2018-05-12T08:45:15.057Z,52.96
2018-05-12T08:46:15.043Z,50.58
2018-05-12T08:47:15.077Z,50.65
2018-05-12T08:48:15.105Z,52.11
2018-05-12T08:49:15.083Z,51.45
2018-05-12T08:50:15.090Z,50.82
2018-05-12T08:51:15.108Z,51.89
2018-05-12T08:52:15.126Z,53.06
2018-05-12T08:53:15.151Z,51.62
2018-05-12T08:54:15.167Z,51.17
2018-05-12T08:55:15.220Z,50.12
2018-05-12T08:56:15.227Z,51.77
2018-05-12T08:57:15.210Z,50.70
2018-05-12T08:58:15.234Z,51.40
2018-05-12T08:59:15.265Z,50.38
2018-05-12T09:00:15.340Z,51.80
2018-05-12T09:01:15.361Z,48.56
2018-05-12T09:02:15.356Z,47.66
2018-05-12T09:03:15.345Z,49.61
2018-05-12T09:04:15.335Z,52.62
2018-05-12T09:05:15.357Z,51.50
2018-05-12T09:06:15.375Z,50.58
2018-05-12T09:07:15.433Z,47.88
2018-05-12T09:08:15.409Z,46.39
2018-05-12T09:09:15.432Z,44.87
2018-05-12T09:10:15.509Z,47.53
2018-05-12T09:11:16.128Z,48.02
2018-05-12T09:12:15.484Z,47.56
2018-05-12T09:13:15.502Z,48.71
2018-05-12T09:14:15.532Z,50.02
2018-05-12T09:15:15.561Z,49.44
2018-05-12T09:16:15.558Z,48.85
2018-05-12T09:17:15.583Z,49.02
2018-05-12T09:18:15.598Z,50.63
2018-05-12T09:19:15.659Z,49.76
2018-05-12T09:20:15.635Z,48.46
2018-05-12T09:21:15.657Z,47.56
2018-05-12T09:22:15.676Z,48.75
2018-05-12T09:23:15.687Z,47.52
2018-05-12T09:24:15.711Z,47.44
2018-05-12T09:25:15.725Z,45.71
2018-05-12T09:26:15.817Z,45.64
2018-05-12T09:27:15.770Z,45.90
2018-05-12T09:28:15.832Z,45.26
2018-05-12T09:29:15.815Z,43.63
2018-05-12T09:30:15.844Z,45.05
2018-05-12T09:31:15.844Z,47.03
2018-05-12T09:32:15.869Z,47.59
2018-05-12T09:33:15.882Z,47.17
2018-05-12T09:34:15.894Z,46.39
2018-05-12T09:35:15.926Z,46.76
2018-05-12T09:36:15.955Z,47.58
2018-05-12T09:37:16.031Z,47.44
2018-05-12T09:38:16.009Z,47.42
2018-05-12T09:39:16.004Z,47.44
2018-05-12T09:40:16.021Z,45.78
2018-05-12T09:41:16.143Z,44.71
2018-05-12T09:42:16.066Z,46.86
2018-05-12T09:43:16.082Z,48.29
2018-05-12T09:44:16.098Z,47.34
2018-05-12T09:45:17.112Z,44.31
2018-05-12T09:46:16.151Z,43.04
2018-05-12T09:47:16.158Z,42.79
2018-05-12T09:48:16.176Z,41.86
2018-05-12T09:49:16.191Z,41.88
2018-05-12T09:50:16.212Z,40.11
2018-05-12T09:51:16.233Z,41.02
2018-05-12T09:52:16.289Z,41.05
2018-05-12T09:53:16.271Z,38.90
2018-05-12T09:54:16.289Z,41.02
2018-05-12T09:55:16.314Z,42.75
2018-05-12T09:56:16.349Z,43.84
2018-05-12T09:57:16.388Z,45.76
2018-05-12T09:58:16.364Z,45.00
2018-05-12T09:59:16.385Z,42.98
2018-05-12T10:00:16.512Z,42.71
2018-05-12T10:01:16.432Z,43.39
2018-05-12T10:02:16.439Z,45.17
2018-05-12T10:03:16.470Z,42.83
2018-05-12T10:04:16.496Z,42.46
2018-05-12T10:05:16.506Z,46.78
2018-05-12T10:06:16.522Z,47.56
2018-05-12T10:07:16.550Z,48.44
2018-05-12T10:08:16.608Z,46.95
2018-05-12T10:09:16.613Z,47.30
2018-05-12T10:10:16.599Z,47.37
2018-05-12T10:11:16.645Z,48.22
2018-05-12T10:12:16.637Z,48.85
2018-05-12T10:13:16.659Z,48.78
2018-05-12T10:14:16.681Z,45.92
2018-05-12T10:15:16.783Z,45.54
2018-05-12T10:16:16.778Z,46.47
2018-05-12T10:17:16.737Z,43.54
2018-05-12T10:18:16.757Z,45.61
2018-05-12T10:19:16.773Z,45.86
2018-05-12T10:20:16.814Z,44.89
2018-05-12T10:21:16.829Z,43.43
2018-05-12T10:22:16.830Z,45.12
2018-05-12T10:23:16.846Z,45.98
2018-05-12T10:24:16.880Z,45.76
2018-05-12T10:25:16.906Z,46.76
2018-05-12T10:26:16.972Z,45.88
2018-05-12T10:27:16.956Z,45.62
2018-05-12T10:28:17.096Z,46.61
2018-05-12T10:29:16.968Z,46.42
2018-05-12T10:30:17.061Z,48.41
2018-05-12T10:31:17.000Z,48.90
2018-05-12T10:32:17.015Z,47.30
2018-05-12T10:33:17.036Z,46.08
2018-05-12T10:34:17.060Z,45.82
2018-05-12T10:35:17.096Z,47.88
2018-05-12T10:36:17.094Z,48.27
2018-05-12T10:37:17.111Z,47.32
2018-05-12T10:38:17.153Z,47.30
2018-05-12T10:39:17.149Z,48.37
2018-05-12T10:40:17.173Z,48.47
2018-05-12T10:41:17.202Z,48.47
2018-05-12T10:42:17.197Z,49.29
2018-05-12T10:43:17.220Z,48.93
2018-05-12T10:44:17.236Z,47.13
2018-05-12T10:45:17.322Z,47.83
2018-05-12T10:46:17.272Z,47.39
2018-05-12T10:47:17.282Z,46.83
2018-05-12T10:48:17.382Z,44.69
2018-05-12T10:49:17.374Z,44.86
2018-05-12T10:50:17.341Z,45.72
2018-05-12T10:51:17.377Z,46.62
2018-05-12T10:52:17.406Z,48.03
2018-05-12T10:53:17.454Z,48.83
2018-05-12T10:54:17.430Z,47.76
2018-05-12T10:55:17.451Z,49.99
2018-05-12T10:56:17.473Z,49.73
2018-05-12T10:57:17.533Z,46.50
2018-05-12T10:58:17.502Z,44.62
2018-05-12T10:59:17.512Z,44.90
2018-05-12T11:00:17.568Z,45.10
2018-05-12T11:01:17.539Z,43.15
2018-05-12T11:02:17.587Z,43.08
2018-05-12T11:03:17.600Z,44.32
2018-05-12T11:04:17.618Z,45.95
2018-05-12T11:05:17.622Z,46.51
2018-05-12T11:06:17.627Z,47.20
2018-05-12T11:07:17.714Z,47.00
2018-05-12T11:08:17.721Z,45.67
2018-05-12T11:09:17.691Z,44.24
2018-05-12T11:10:17.737Z,42.76
2018-05-12T11:11:17.735Z,44.76
2018-05-12T11:12:18.618Z,43.95
2018-05-12T11:13:17.757Z,43.57
2018-05-12T11:14:17.780Z,44.90
2018-05-12T11:15:17.788Z,42.34
2018-05-12T11:16:17.877Z,43.87
2018-05-12T11:17:17.885Z,44.98
2018-05-12T11:18:17.891Z,43.40
2018-05-12T11:19:17.857Z,43.96
2018-05-12T11:20:17.980Z,47.59
2018-05-12T11:21:17.912Z,45.50
2018-05-12T11:22:17.898Z,47.62
2018-05-12T11:23:17.913Z,47.32
2018-05-12T11:24:17.932Z,46.47
2018-05-12T11:25:17.965Z,47.34
2018-05-12T11:26:18.046Z,47.15
2018-05-12T11:27:18.050Z,45.81
2018-05-12T11:28:18.056Z,47.44
2018-05-12T11:29:18.015Z,45.15
2018-05-12T11:30:18.073Z,45.50
2018-05-12T11:31:18.052Z,46.67
2018-05-12T11:32:18.099Z,46.35
2018-05-12T11:33:18.118Z,47.11
2018-05-12T11:34:18.093Z,44.41
2018-05-12T11:35:18.134Z,44.94
2018-05-12T11:36:18.125Z,46.86
2018-05-12T11:37:18.221Z,45.35
2018-05-12T11:38:18.160Z,44.52
2018-05-12T11:39:18.245Z,43.81
2018-05-12T11:40:18.291Z,43.89
2018-05-12T11:41:18.249Z,43.76
2018-05-12T11:42:18.222Z,41.13
2018-05-12T11:43:18.234Z,42.94
2018-05-12T11:44:18.263Z,41.67
2018-05-12T11:45:18.307Z,41.71
2018-05-12T11:46:18.296Z,42.51
2018-05-12T11:47:18.410Z,42.47
2018-05-12T11:48:18.325Z,42.47
2018-05-12T11:49:18.344Z,41.57
2018-05-12T11:50:18.363Z,42.33
2018-05-12T11:51:18.420Z,41.55
2018-05-12T11:52:18.393Z,40.33
2018-05-12T11:53:18.413Z,39.88
2018-05-12T11:54:18.431Z,40.73
2018-05-12T11:55:18.449Z,39.00
2018-05-12T11:56:18.551Z,40.13
2018-05-12T11:57:18.481Z,43.40
2018-05-12T11:58:18.614Z,43.05
2018-05-12T11:59:18.521Z,40.01
2018-05-12T12:00:18.599Z,41.69
2018-05-12T12:01:18.554Z,43.01
2018-05-12T12:02:18.569Z,44.00
2018-05-12T12:03:18.590Z,44.00
2018-05-12T12:04:18.675Z,45.43
2018-05-12T12:05:18.621Z,47.83
2018-05-12T12:06:18.638Z,47.40
2018-05-12T12:07:18.649Z,47.11
2018-05-12T12:08:18.666Z,44.27
2018-05-12T12:09:18.726Z,43.05
2018-05-12T12:10:18.698Z,43.19
2018-05-12T12:11:18.725Z,41.93
2018-05-12T12:12:18.723Z,41.28
2018-05-12T12:13:18.734Z,41.06
2018-05-12T12:14:18.749Z,41.06
2018-05-12T12:15:18.782Z,42.50
2018-05-12T12:16:18.782Z,42.95
2018-05-12T12:17:18.798Z,43.44
2018-05-12T12:18:18.826Z,43.07
2018-05-12T12:19:18.829Z,44.09
2018-05-12T12:20:18.913Z,42.66
2018-05-12T12:21:18.919Z,41.24
2018-05-12T12:22:18.943Z,39.37
2018-05-12T12:23:19.537Z,41.10
2018-05-12T12:24:19.536Z,41.74
2018-05-12T12:25:19.534Z,43.57
2018-05-12T12:26:18.965Z,43.18
2018-05-12T12:27:18.959Z,43.98
2018-05-12T12:28:18.966Z,43.40
2018-05-12T12:29:18.998Z,42.91
2018-05-12T12:30:19.006Z,43.57
2018-05-12T12:31:19.005Z,45.39
2018-05-12T12:32:19.105Z,43.52
2018-05-12T12:33:19.080Z,45.58
2018-05-12T12:34:19.102Z,43.91
2018-05-12T12:35:19.111Z,46.04
2018-05-12T12:36:19.080Z,45.65
2018-05-12T12:37:19.139Z,45.65
2018-05-12T12:38:19.136Z,46.43
2018-05-12T12:39:19.149Z,47.20
2018-05-12T12:40:19.118Z,46.82
2018-05-12T12:41:19.167Z,46.24
2018-05-12T12:42:19.158Z,47.20
2018-05-12T12:43:19.163Z,45.64
2018-05-12T12:44:19.200Z,46.80
2018-05-12T12:45:19.182Z,45.56
2018-05-12T12:46:19.197Z,45.54
2018-05-12T12:47:19.196Z,45.56
2018-05-12T12:48:19.208Z,45.44
2018-05-12T12:49:19.207Z,47.89
2018-05-12T12:50:19.214Z,48.00
2018-05-12T12:51:19.220Z,46.14
2018-05-12T12:52:19.220Z,46.53
2018-05-12T12:53:19.233Z,46.53
2018-05-12T12:54:19.250Z,46.24
2018-05-12T12:55:19.244Z,46.24
2018-05-12T12:56:19.254Z,46.45
2018-05-12T12:57:19.258Z,45.20
2018-05-12T12:58:20.347Z,45.10
2018-05-12T12:59:19.233Z,46.07
2018-05-12T13:00:19.260Z,48.03
2018-05-12T13:01:19.246Z,47.45
2018-05-12T13:02:19.253Z,46.19
2018-05-12T13:03:19.258Z,45.31
2018-05-12T13:04:19.259Z,46.33
2018-05-12T13:05:19.310Z,47.20
2018-05-12T13:06:19.279Z,48.54
2018-05-12T13:07:19.278Z,47.79
2018-05-12T13:08:19.287Z,48.15
2018-05-12T13:09:19.288Z,46.99
2018-05-12T13:10:20.123Z,48.18
2018-05-12T13:11:19.306Z,48.39
2018-05-12T13:12:19.300Z,47.02
2018-05-12T13:13:19.307Z,47.11
2018-05-12T13:14:19.317Z,45.47
2018-05-12T13:15:19.326Z,45.39
2018-05-12T13:16:19.328Z,46.67
2018-05-12T13:17:19.334Z,45.56
2018-05-12T13:18:19.331Z,46.53
2018-05-12T13:19:19.345Z,46.72
2018-05-12T13:20:19.349Z,47.96
2018-05-12T13:21:19.348Z,47.60
2018-05-12T13:22:19.357Z,48.57
2018-05-12T13:23:19.365Z,47.30
2018-05-12T13:24:19.364Z,47.20
2018-05-12T13:25:19.407Z,45.92
2018-05-12T13:26:19.380Z,47.38
2018-05-12T13:27:19.380Z,46.51
2018-05-12T13:28:19.383Z,47.11
2018-05-12T13:29:19.390Z,48.47